EWG56R EDDS-LSGG
Flight info
| Callsign | EWG56R |
|---|---|
| Flight time | 0h 42m |
| Altitude | 27000 |
| Route | ROTWE5B ROTWE Y126 TUBLO N850 NATOR DCT LUTIX DCT BENOT |
| Aircraft | A320/M-SDE3FGHIRWY/LB1 |
Departure
| Time | 2026-05-07 14:13 |
|---|---|
| Airport | Stuttgart Airport (EDDS) |
Arrival
| Time | 2026-05-07 14:55 |
|---|---|
| Airport | Geneva International Airport (LSGG) |
| Time | Latitude | Longitude | Altitude | Speed | Heading |
|---|---|---|---|---|---|
| 2026-05-07 13:39 | 48.68856 | 9.19220 | 1285 ft | 0 kts | 343° |
| 2026-05-07 14:02 | 48.68833 | 9.19229 | 1287 ft | 4 kts | 349° |
| 2026-05-07 14:02 | 48.68806 | 9.19234 | 1290 ft | 4 kts | 2° |
| 2026-05-07 14:02 | 48.68782 | 9.19226 | 1290 ft | 4 kts | 37° |
| 2026-05-07 14:03 | 48.68772 | 9.19211 | 1289 ft | 0 kts | 73° |
| 2026-05-07 14:05 | 48.68785 | 9.19275 | 1287 ft | 10 kts | 73° |
| 2026-05-07 14:06 | 48.68804 | 9.19374 | 1290 ft | 9 kts | 74° |
| 2026-05-07 14:06 | 48.68820 | 9.19460 | 1290 ft | 8 kts | 75° |
| 2026-05-07 14:06 | 48.68844 | 9.19590 | 1285 ft | 15 kts | 74° |
| 2026-05-07 14:06 | 48.68872 | 9.19735 | 1287 ft | 14 kts | 74° |
| 2026-05-07 14:07 | 48.68860 | 9.19876 | 1285 ft | 15 kts | 152° |
| 2026-05-07 14:07 | 48.68828 | 9.19993 | 1285 ft | 13 kts | 72° |
| 2026-05-07 14:07 | 48.68866 | 9.20190 | 1288 ft | 23 kts | 74° |
| 2026-05-07 14:07 | 48.68912 | 9.20430 | 1287 ft | 25 kts | 73° |
| 2026-05-07 14:08 | 48.68961 | 9.20684 | 1287 ft | 25 kts | 75° |
| 2026-05-07 14:08 | 48.69012 | 9.20945 | 1288 ft | 27 kts | 73° |
| 2026-05-07 14:08 | 48.69064 | 9.21223 | 1289 ft | 28 kts | 74° |
| 2026-05-07 14:08 | 48.69119 | 9.21517 | 1285 ft | 30 kts | 73° |
| 2026-05-07 14:09 | 48.69179 | 9.21817 | 1289 ft | 27 kts | 74° |
| 2026-05-07 14:09 | 48.69222 | 9.22055 | 1289 ft | 23 kts | 72° |
| 2026-05-07 14:09 | 48.69270 | 9.22300 | 1287 ft | 25 kts | 75° |
| 2026-05-07 14:09 | 48.69316 | 9.22561 | 1286 ft | 26 kts | 73° |
| 2026-05-07 14:10 | 48.69370 | 9.22836 | 1289 ft | 28 kts | 73° |
| 2026-05-07 14:10 | 48.69426 | 9.23121 | 1288 ft | 29 kts | 73° |
| 2026-05-07 14:10 | 48.69484 | 9.23424 | 1287 ft | 31 kts | 73° |
| 2026-05-07 14:10 | 48.69545 | 9.23739 | 1287 ft | 32 kts | 75° |
| 2026-05-07 14:11 | 48.69593 | 9.23999 | 1285 ft | 23 kts | 74° |
| 2026-05-07 14:11 | 48.69589 | 9.24197 | 1287 ft | 17 kts | 123° |
| 2026-05-07 14:11 | 48.69517 | 9.24313 | 1287 ft | 15 kts | 163° |
| 2026-05-07 14:11 | 48.69422 | 9.24315 | 1285 ft | 13 kts | 198° |
| 2026-05-07 14:12 | 48.69375 | 9.24234 | 1288 ft | 0 kts | 256° |
| 2026-05-07 14:12 | 48.69375 | 9.24233 | 1288 ft | 0 kts | 253° |
| 2026-05-07 14:12 | 48.69373 | 9.24221 | 1287 ft | 7 kts | 253° |
| 2026-05-07 14:12 | 48.69280 | 9.23710 | 1288 ft | 96 kts | 254° |
| 2026-05-07 14:13 | 48.69044 | 9.22350 | 1327 ft | 164 kts | 257° |
| 2026-05-07 14:13 | 48.68705 | 9.20555 | 1889 ft | 187 kts | 255° |
| 2026-05-07 14:13 | 48.68338 | 9.18672 | 2883 ft | 193 kts | 256° |
| 2026-05-07 14:13 | 48.67968 | 9.16676 | 3623 ft | 198 kts | 256° |
| 2026-05-07 14:14 | 48.67592 | 9.14675 | 4355 ft | 197 kts | 255° |
| 2026-05-07 14:14 | 48.67215 | 9.12665 | 4954 ft | 206 kts | 255° |
| 2026-05-07 14:14 | 48.66803 | 9.10463 | 5368 ft | 230 kts | 255° |
| 2026-05-07 14:14 | 48.66339 | 9.08017 | 5856 ft | 253 kts | 255° |
| 2026-05-07 14:15 | 48.65841 | 9.05419 | 6680 ft | 260 kts | 255° |
| 2026-05-07 14:15 | 48.65329 | 9.02764 | 7591 ft | 265 kts | 254° |
| 2026-05-07 14:15 | 48.64806 | 9.00068 | 8518 ft | 269 kts | 253° |
| 2026-05-07 14:15 | 48.64272 | 8.97338 | 9477 ft | 272 kts | 253° |
| 2026-05-07 14:16 | 48.63733 | 8.94585 | 10308 ft | 278 kts | 253° |
| 2026-05-07 14:16 | 48.63158 | 8.91655 | 10632 ft | 302 kts | 253° |
| 2026-05-07 14:16 | 48.62549 | 8.88546 | 11195 ft | 313 kts | 253° |
| 2026-05-07 14:16 | 48.61762 | 8.85449 | 11950 ft | 319 kts | 243° |
| 2026-05-07 14:17 | 48.60547 | 8.82662 | 12719 ft | 324 kts | 231° |
| 2026-05-07 14:17 | 48.59016 | 8.80117 | 13496 ft | 329 kts | 229° |
| 2026-05-07 14:17 | 48.57453 | 8.77552 | 14200 ft | 334 kts | 229° |
| 2026-05-07 14:17 | 48.55876 | 8.74960 | 14884 ft | 337 kts | 229° |
| 2026-05-07 14:18 | 48.54280 | 8.72334 | 15569 ft | 340 kts | 229° |
| 2026-05-07 14:18 | 48.52695 | 8.69659 | 16248 ft | 343 kts | 233° |
| 2026-05-07 14:18 | 48.51410 | 8.66626 | 16931 ft | 345 kts | 245° |
| 2026-05-07 14:18 | 48.50555 | 8.63238 | 17609 ft | 347 kts | 255° |
| 2026-05-07 14:19 | 48.49923 | 8.59717 | 18320 ft | 349 kts | 255° |
| 2026-05-07 14:19 | 48.49280 | 8.56177 | 18926 ft | 352 kts | 255° |
| 2026-05-07 14:19 | 48.48627 | 8.52606 | 19518 ft | 354 kts | 255° |
| 2026-05-07 14:19 | 48.47841 | 8.49078 | 20076 ft | 358 kts | 246° |
| 2026-05-07 14:20 | 48.46577 | 8.45866 | 20643 ft | 363 kts | 234° |
| 2026-05-07 14:20 | 48.44820 | 8.43103 | 21190 ft | 369 kts | 221° |
| 2026-05-07 14:20 | 48.42654 | 8.40983 | 21728 ft | 375 kts | 208° |
| 2026-05-07 14:20 | 48.40212 | 8.39537 | 22255 ft | 381 kts | 199° |
| 2026-05-07 14:21 | 48.37616 | 8.38638 | 22783 ft | 385 kts | 194° |
| 2026-05-07 14:21 | 48.34980 | 8.37810 | 23325 ft | 388 kts | 194° |
| 2026-05-07 14:21 | 48.32322 | 8.36971 | 23792 ft | 392 kts | 194° |
| 2026-05-07 14:21 | 48.29643 | 8.36121 | 24232 ft | 395 kts | 194° |
| 2026-05-07 14:22 | 48.26950 | 8.35268 | 24689 ft | 397 kts | 194° |
| 2026-05-07 14:22 | 48.24240 | 8.34412 | 25122 ft | 399 kts | 194° |
| 2026-05-07 14:22 | 48.21513 | 8.33550 | 25554 ft | 401 kts | 194° |
| 2026-05-07 14:22 | 48.18790 | 8.32623 | 25979 ft | 402 kts | 198° |
| 2026-05-07 14:23 | 48.16183 | 8.31135 | 26389 ft | 402 kts | 208° |
| 2026-05-07 14:23 | 48.13770 | 8.29016 | 26797 ft | 402 kts | 215° |
| 2026-05-07 14:23 | 48.11449 | 8.26748 | 27009 ft | 404 kts | 214° |
| 2026-05-07 14:23 | 48.09128 | 8.24502 | 27041 ft | 388 kts | 214° |
| 2026-05-07 14:24 | 48.06892 | 8.22353 | 27042 ft | 379 kts | 214° |
| 2026-05-07 14:24 | 48.04679 | 8.20230 | 27043 ft | 376 kts | 214° |
| 2026-05-07 14:24 | 48.02482 | 8.18122 | 27042 ft | 375 kts | 214° |
| 2026-05-07 14:24 | 48.00283 | 8.16015 | 27042 ft | 375 kts | 214° |
| 2026-05-07 14:25 | 47.98086 | 8.13910 | 27043 ft | 375 kts | 214° |
| 2026-05-07 14:25 | 47.95884 | 8.11802 | 27043 ft | 375 kts | 214° |
| 2026-05-07 14:25 | 47.93682 | 8.09691 | 27028 ft | 375 kts | 214° |
| 2026-05-07 14:25 | 47.91517 | 8.07615 | 27040 ft | 375 kts | 214° |
| 2026-05-07 14:26 | 47.89322 | 8.05515 | 27039 ft | 375 kts | 214° |
| 2026-05-07 14:26 | 47.87126 | 8.03415 | 27039 ft | 375 kts | 214° |
| 2026-05-07 14:26 | 47.84930 | 8.01316 | 27033 ft | 375 kts | 214° |
| 2026-05-07 14:26 | 47.82735 | 7.99218 | 27034 ft | 375 kts | 214° |
| 2026-05-07 14:27 | 47.80540 | 7.97125 | 27035 ft | 375 kts | 214° |
| 2026-05-07 14:27 | 47.78338 | 7.95033 | 27035 ft | 375 kts | 214° |
| 2026-05-07 14:27 | 47.76134 | 7.92943 | 27033 ft | 375 kts | 214° |
| 2026-05-07 14:27 | 47.73933 | 7.90856 | 27026 ft | 375 kts | 214° |
| 2026-05-07 14:28 | 47.71758 | 7.88797 | 27027 ft | 375 kts | 214° |
| 2026-05-07 14:28 | 47.69557 | 7.86715 | 27040 ft | 375 kts | 214° |
| 2026-05-07 14:28 | 47.67354 | 7.84631 | 27033 ft | 375 kts | 214° |
| 2026-05-07 14:28 | 47.65159 | 7.82551 | 27022 ft | 375 kts | 214° |
| 2026-05-07 14:29 | 47.62958 | 7.80465 | 27036 ft | 375 kts | 214° |
| 2026-05-07 14:29 | 47.60759 | 7.78385 | 27024 ft | 374 kts | 214° |
| 2026-05-07 14:29 | 47.58560 | 7.76308 | 27023 ft | 374 kts | 214° |
| 2026-05-07 14:29 | 47.56365 | 7.74241 | 27024 ft | 374 kts | 214° |
| 2026-05-07 14:30 | 47.54166 | 7.72174 | 27013 ft | 374 kts | 214° |
| 2026-05-07 14:30 | 47.51966 | 7.70109 | 27019 ft | 374 kts | 214° |
| 2026-05-07 14:30 | 47.49767 | 7.68045 | 27021 ft | 374 kts | 214° |
| 2026-05-07 14:30 | 47.47569 | 7.65985 | 27024 ft | 374 kts | 214° |
| 2026-05-07 14:31 | 47.45398 | 7.63946 | 27028 ft | 374 kts | 214° |
| 2026-05-07 14:31 | 47.43202 | 7.61886 | 27019 ft | 374 kts | 214° |
| 2026-05-07 14:31 | 47.41002 | 7.59828 | 27025 ft | 374 kts | 214° |
| 2026-05-07 14:31 | 47.38805 | 7.57779 | 27013 ft | 374 kts | 214° |
| 2026-05-07 14:32 | 47.36604 | 7.55725 | 27016 ft | 374 kts | 214° |
| 2026-05-07 14:32 | 47.34401 | 7.53673 | 27008 ft | 374 kts | 214° |
| 2026-05-07 14:32 | 47.32199 | 7.51627 | 27010 ft | 374 kts | 214° |
| 2026-05-07 14:32 | 47.29998 | 7.49581 | 27027 ft | 374 kts | 214° |
| 2026-05-07 14:33 | 47.27784 | 7.47521 | 27026 ft | 382 kts | 214° |
| 2026-05-07 14:33 | 47.25493 | 7.45388 | 27029 ft | 396 kts | 214° |
| 2026-05-07 14:33 | 47.23177 | 7.43239 | 26903 ft | 390 kts | 214° |
| 2026-05-07 14:33 | 47.20898 | 7.41130 | 26399 ft | 384 kts | 214° |
| 2026-05-07 14:34 | 47.18641 | 7.39044 | 25880 ft | 381 kts | 214° |
| 2026-05-07 14:34 | 47.16554 | 7.36785 | 25381 ft | 376 kts | 224° |
| 2026-05-07 14:34 | 47.14815 | 7.33960 | 24871 ft | 371 kts | 233° |
| 2026-05-07 14:34 | 47.13199 | 7.30952 | 24356 ft | 368 kts | 233° |
| 2026-05-07 14:35 | 47.11614 | 7.28016 | 23851 ft | 366 kts | 232° |
| 2026-05-07 14:35 | 47.10052 | 7.25135 | 23288 ft | 364 kts | 232° |
| 2026-05-07 14:35 | 47.08477 | 7.22242 | 22737 ft | 362 kts | 232° |
| 2026-05-07 14:35 | 47.06907 | 7.19370 | 22227 ft | 359 kts | 232° |
| 2026-05-07 14:36 | 47.05352 | 7.16530 | 21750 ft | 356 kts | 232° |
| 2026-05-07 14:36 | 47.03811 | 7.13703 | 21262 ft | 354 kts | 232° |
| 2026-05-07 14:36 | 47.02281 | 7.10895 | 20789 ft | 351 kts | 232° |
| 2026-05-07 14:36 | 47.00758 | 7.08107 | 20313 ft | 349 kts | 232° |
| 2026-05-07 14:37 | 46.99245 | 7.05336 | 19853 ft | 347 kts | 232° |
| 2026-05-07 14:37 | 46.96255 | 6.99870 | 18829 ft | 339 kts | 232° |
| 2026-05-07 14:37 | 46.94782 | 6.97187 | 18019 ft | 336 kts | 232° |
| 2026-05-07 14:38 | 46.93336 | 6.94556 | 17427 ft | 325 kts | 231° |
| 2026-05-07 14:38 | 46.92412 | 6.92874 | 17169 ft | 315 kts | 231° |
| 2026-05-07 14:38 | 46.91067 | 6.90424 | 16795 ft | 303 kts | 231° |
| 2026-05-07 14:38 | 46.89321 | 6.87247 | 16317 ft | 303 kts | 231° |
| 2026-05-07 14:39 | 46.88000 | 6.84853 | 15953 ft | 302 kts | 231° |
| 2026-05-07 14:39 | 46.86681 | 6.82467 | 15589 ft | 301 kts | 231° |
| 2026-05-07 14:39 | 46.85368 | 6.80091 | 15246 ft | 300 kts | 231° |
| 2026-05-07 14:39 | 46.84499 | 6.78519 | 15002 ft | 300 kts | 231° |
| 2026-05-07 14:40 | 46.83190 | 6.76151 | 14646 ft | 300 kts | 231° |
| 2026-05-07 14:40 | 46.81878 | 6.73779 | 14280 ft | 300 kts | 231° |
| 2026-05-07 14:40 | 46.80565 | 6.71408 | 13931 ft | 301 kts | 231° |
| 2026-05-07 14:40 | 46.79246 | 6.69030 | 13544 ft | 301 kts | 231° |
| 2026-05-07 14:41 | 46.77929 | 6.66657 | 13170 ft | 299 kts | 231° |
| 2026-05-07 14:41 | 46.76638 | 6.64336 | 12804 ft | 287 kts | 231° |
| 2026-05-07 14:41 | 46.75410 | 6.62127 | 12464 ft | 274 kts | 231° |
| 2026-05-07 14:41 | 46.74242 | 6.60028 | 12142 ft | 268 kts | 230° |
| 2026-05-07 14:42 | 46.72921 | 6.58117 | 11806 ft | 267 kts | 218° |
| 2026-05-07 14:42 | 46.71334 | 6.56714 | 11468 ft | 267 kts | 205° |
| 2026-05-07 14:42 | 46.69580 | 6.55795 | 11131 ft | 267 kts | 199° |
| 2026-05-07 14:42 | 46.67817 | 6.54945 | 10781 ft | 267 kts | 199° |
| 2026-05-07 14:43 | 46.66068 | 6.54101 | 10569 ft | 258 kts | 199° |
| 2026-05-07 14:43 | 46.64378 | 6.53283 | 10205 ft | 260 kts | 199° |
| 2026-05-07 14:43 | 46.62651 | 6.52444 | 9754 ft | 262 kts | 199° |
| 2026-05-07 14:43 | 46.60920 | 6.51602 | 9381 ft | 262 kts | 199° |
| 2026-05-07 14:44 | 46.59221 | 6.50778 | 9031 ft | 260 kts | 199° |
| 2026-05-07 14:44 | 46.57490 | 6.50008 | 8684 ft | 264 kts | 191° |
| 2026-05-07 14:44 | 46.55634 | 6.50182 | 8349 ft | 274 kts | 162° |
| 2026-05-07 14:44 | 46.53932 | 6.51448 | 8019 ft | 277 kts | 150° |
| 2026-05-07 14:45 | 46.52309 | 6.52947 | 7684 ft | 275 kts | 148° |
| 2026-05-07 14:45 | 46.50765 | 6.54547 | 7359 ft | 272 kts | 136° |
| 2026-05-07 14:45 | 46.49785 | 6.56861 | 7030 ft | 271 kts | 107° |
| 2026-05-07 14:45 | 46.49672 | 6.59541 | 6717 ft | 268 kts | 78° |
| 2026-05-07 14:46 | 46.50445 | 6.61951 | 6402 ft | 264 kts | 49° |
| 2026-05-07 14:46 | 46.51892 | 6.63485 | 6061 ft | 257 kts | 19° |
| 2026-05-07 14:46 | 46.53633 | 6.63779 | 5722 ft | 251 kts | 351° |
| 2026-05-07 14:46 | 46.55222 | 6.62937 | 5624 ft | 237 kts | 326° |
| 2026-05-07 14:47 | 46.56373 | 6.61320 | 5570 ft | 225 kts | 303° |
| 2026-05-07 14:47 | 46.56961 | 6.59272 | 5522 ft | 226 kts | 281° |
| 2026-05-07 14:47 | 46.56952 | 6.56971 | 5473 ft | 235 kts | 257° |
| 2026-05-07 14:47 | 46.56276 | 6.54811 | 5421 ft | 238 kts | 233° |
| 2026-05-07 14:48 | 46.55046 | 6.53207 | 5367 ft | 239 kts | 216° |
| 2026-05-07 14:48 | 46.53676 | 6.51813 | 5315 ft | 240 kts | 216° |
| 2026-05-07 14:48 | 46.52309 | 6.50414 | 5261 ft | 240 kts | 216° |
| 2026-05-07 14:48 | 46.50946 | 6.49014 | 5206 ft | 240 kts | 217° |
| 2026-05-07 14:49 | 46.49583 | 6.47615 | 5155 ft | 240 kts | 216° |
| 2026-05-07 14:49 | 46.48218 | 6.46212 | 5090 ft | 240 kts | 216° |
| 2026-05-07 14:49 | 46.46854 | 6.44811 | 5050 ft | 241 kts | 216° |
| 2026-05-07 14:49 | 46.45549 | 6.43306 | 5001 ft | 238 kts | 226° |
| 2026-05-07 14:50 | 46.44418 | 6.41555 | 5015 ft | 238 kts | 230° |
| 2026-05-07 14:50 | 46.43339 | 6.39784 | 5013 ft | 238 kts | 228° |
| 2026-05-07 14:50 | 46.42197 | 6.38048 | 5015 ft | 238 kts | 227° |
| 2026-05-07 14:50 | 46.41036 | 6.36327 | 5016 ft | 239 kts | 227° |
| 2026-05-07 14:51 | 46.39875 | 6.34608 | 5009 ft | 238 kts | 227° |
| 2026-05-07 14:51 | 46.38716 | 6.32892 | 5012 ft | 239 kts | 226° |
| 2026-05-07 14:51 | 46.37542 | 6.31153 | 4870 ft | 240 kts | 226° |
| 2026-05-07 14:51 | 46.36383 | 6.29438 | 4568 ft | 239 kts | 227° |
| 2026-05-07 14:52 | 46.35217 | 6.27715 | 4249 ft | 239 kts | 226° |
| 2026-05-07 14:52 | 46.34067 | 6.26015 | 3930 ft | 239 kts | 227° |
| 2026-05-07 14:52 | 46.32886 | 6.24270 | 3599 ft | 238 kts | 226° |
| 2026-05-07 14:52 | 46.31741 | 6.22580 | 3297 ft | 237 kts | 226° |
| 2026-05-07 14:53 | 46.30588 | 6.20881 | 2978 ft | 235 kts | 227° |
| 2026-05-07 14:53 | 46.29478 | 6.19245 | 2658 ft | 218 kts | 226° |
| 2026-05-07 14:53 | 46.28458 | 6.17743 | 2393 ft | 199 kts | 226° |
| 2026-05-07 14:53 | 46.27537 | 6.16385 | 2150 ft | 178 kts | 226° |
| 2026-05-07 14:54 | 46.26710 | 6.15164 | 1873 ft | 163 kts | 224° |
| 2026-05-07 14:54 | 46.25951 | 6.14040 | 1653 ft | 152 kts | 224° |
| 2026-05-07 14:54 | 46.25217 | 6.12960 | 1453 ft | 149 kts | 223° |
| 2026-05-07 14:54 | 46.24505 | 6.11922 | 1371 ft | 136 kts | 224° |
| 2026-05-07 14:55 | 46.24063 | 6.11289 | 1375 ft | 56 kts | 225° |
| 2026-05-07 14:55 | 46.23848 | 6.11069 | 1378 ft | 19 kts | 158° |
| 2026-05-07 14:55 | 46.23734 | 6.11094 | 1375 ft | 7 kts | 182° |
| 2026-05-07 14:55 | 46.23691 | 6.11066 | 1376 ft | 7 kts | 224° |
| 2026-05-07 14:56 | 46.23656 | 6.11014 | 1376 ft | 7 kts | 226° |
| 2026-05-07 14:56 | 46.23624 | 6.10965 | 1376 ft | 6 kts | 226° |
| 2026-05-07 14:56 | 46.23590 | 6.10920 | 1378 ft | 8 kts | 220° |
| 2026-05-07 14:56 | 46.23564 | 6.10901 | 1377 ft | 0 kts | 165° |
| 2026-05-07 14:57 | 46.23549 | 6.10917 | 1379 ft | 2 kts | 135° |
| 2026-05-07 14:57 | 46.23541 | 6.10933 | 1378 ft | 4 kts | 126° |
| 2026-05-07 14:57 | 46.23521 | 6.10966 | 1376 ft | 0 kts | 135° |